Time;durP1;ratioP1;P1;durP2;ratioP2;P2;SDS_P1;SDS_P2;PMS_P1;PMS_P2;Temp;Humidity;BMP_temperature;BMP_pressure;BME280_temperature;BME280_humidity;BME280_pressure;Samples;Min_cycle;Max_cycle;Signal;HPM_P1;HPM_P2
2020/12/07 00:02:01;;;;;;;9.93;6.53;;;5.80;99.90;;;;;;5094912;28;20024;-59
2020/12/07 00:04:26;;;;;;;10.90;6.93;;;5.80;99.90;;;;;;5113117;28;20103;-60
2020/12/07 00:06:53;;;;;;;10.35;6.55;;;5.80;99.90;;;;;;5094207;28;20063;-60
2020/12/07 00:09:19;;;;;;;9.10;5.88;;;5.80;99.90;;;;;;5113135;28;20027;-60
2020/12/07 00:11:49;;;;;;;11.73;6.55;;;5.80;99.90;;;;;;5094384;28;20088;-61
2020/12/07 00:14:15;;;;;;;9.05;5.03;;;5.80;99.90;;;;;;5094940;28;20019;-61
2020/12/07 00:16:47;;;;;;;8.63;5.57;;;5.70;99.90;;;;;;5094486;28;20055;-61
2020/12/07 00:19:13;;;;;;;9.35;5.85;;;5.70;99.90;;;;;;5094875;28;20027;-59
2020/12/07 00:21:42;;;;;;;10.05;5.53;;;5.70;99.90;;;;;;5094116;28;20031;-60
2020/12/07 00:24:08;;;;;;;9.45;5.82;;;5.70;99.90;;;;;;5094553;28;20028;-59
2020/12/07 00:26:34;;;;;;;7.65;5.28;;;5.70;99.90;;;;;;5112839;28;20024;-59
2020/12/07 00:28:59;;;;;;;6.78;4.22;;;5.70;99.90;;;;;;5112460;28;20027;-59
2020/12/07 00:31:26;;;;;;;7.40;4.28;;;5.70;99.90;;;;;;5112505;28;20358;-59
2020/12/07 00:33:58;;;;;;;6.22;4.50;;;5.70;99.90;;;;;;5111996;28;20161;-59
2020/12/07 00:36:27;;;;;;;5.70;4.55;;;5.70;99.90;;;;;;5093831;28;20600;-60
2020/12/07 00:38:53;;;;;;;5.72;4.00;;;5.70;99.90;;;;;;5111614;28;20533;-60
2020/12/07 00:41:20;;;;;;;4.53;3.40;;;5.70;99.90;;;;;;5111845;28;20038;-60
2020/12/07 00:43:46;;;;;;;4.13;3.30;;;5.70;99.90;;;;;;5093535;28;20034;-60
2020/12/07 00:46:15;;;;;;;4.03;3.30;;;5.60;99.90;;;;;;5112565;28;20046;-59
2020/12/07 00:48:40;;;;;;;4.97;3.05;;;5.60;99.90;;;;;;5093222;28;20152;-58
2020/12/07 00:51:06;;;;;;;4.80;3.20;;;5.60;99.90;;;;;;5113023;28;20020;-59
2020/12/07 00:53:32;;;;;;;3.97;3.00;;;5.60;99.90;;;;;;5112121;28;20410;-58
2020/12/07 00:55:58;;;;;;;4.65;3.55;;;5.60;99.90;;;;;;5111714;28;20176;-59
2020/12/07 00:58:23;;;;;;;4.63;3.50;;;5.60;99.90;;;;;;5093832;28;20417;-58
2020/12/07 01:00:49;;;;;;;5.15;3.40;;;5.60;99.90;;;;;;5111475;28;20414;-59
2020/12/07 01:03:15;;;;;;;3.63;2.92;;;5.50;99.90;;;;;;5093664;28;20469;-58
2020/12/07 01:05:40;;;;;;;4.85;3.72;;;5.50;99.90;;;;;;5093048;28;20047;-60
2020/12/07 01:08:06;;;;;;;4.50;3.40;;;5.50;99.90;;;;;;5112152;28;20019;-58
2020/12/07 01:10:32;;;;;;;3.65;3.08;;;5.50;99.90;;;;;;5112247;28;20070;-59
2020/12/07 01:12:58;;;;;;;4.78;3.50;;;5.50;99.90;;;;;;5111521;28;20093;-59
2020/12/07 01:15:23;;;;;;;4.68;3.72;;;5.50;99.90;;;;;;5111770;28;20461;-59
2020/12/07 01:17:49;;;;;;;5.22;4.05;;;5.50;99.90;;;;;;5111054;28;20031;-60
2020/12/07 01:20:15;;;;;;;5.82;4.35;;;5.60;99.90;;;;;;5111598;28;20027;-60
2020/12/07 01:22:40;;;;;;;5.20;4.18;;;5.60;99.90;;;;;;5092408;28;20030;-62
2020/12/07 01:25:06;;;;;;;6.32;4.45;;;5.60;99.90;;;;;;5093321;28;20038;-60
2020/12/07 01:27:31;;;;;;;7.68;5.13;;;5.70;99.90;;;;;;5093390;28;20024;-61
2020/12/07 01:29:57;;;;;;;7.10;4.75;;;5.70;99.90;;;;;;5092884;28;20024;-59
2020/12/07 01:32:23;;;;;;;8.18;5.10;;;5.70;99.90;;;;;;5093452;28;20047;-59
2020/12/07 01:34:49;;;;;;;6.97;4.70;;;5.70;99.90;;;;;;5110713;28;20465;-60
2020/12/07 01:37:15;;;;;;;6.70;5.05;;;5.60;99.90;;;;;;5093272;28;20027;-59
2020/12/07 01:39:41;;;;;;;8.80;6.15;;;5.60;99.90;;;;;;5092668;28;20023;-64
2020/12/07 01:42:07;;;;;;;7.28;5.15;;;5.60;99.90;;;;;;5111078;28;20111;-60
2020/12/07 01:44:32;;;;;;;8.07;5.75;;;5.60;99.90;;;;;;5093025;28;20165;-59
2020/12/07 01:46:58;;;;;;;8.40;5.47;;;5.70;99.90;;;;;;5093405;28;20123;-60
2020/12/07 01:49:24;;;;;;;7.90;6.20;;;5.70;99.90;;;;;;5099518;28;20082;-61
2020/12/07 01:51:51;;;;;;;8.38;5.50;;;5.70;99.90;;;;;;5098786;28;20069;-59
2020/12/07 01:54:17;;;;;;;6.80;5.15;;;5.70;99.90;;;;;;5099659;28;20023;-59
2020/12/07 01:56:44;;;;;;;7.25;5.28;;;5.70;99.90;;;;;;5117352;28;20127;-60
2020/12/07 01:59:10;;;;;;;7.00;5.28;;;5.70;99.90;;;;;;5099320;28;20024;-60
2020/12/07 02:01:38;;;;;;;5.82;4.60;;;5.70;99.90;;;;;;5117717;28;20020;-59
2020/12/07 02:04:04;;;;;;;6.65;4.70;;;5.70;99.90;;;;;;5098844;28;20024;-59
2020/12/07 02:06:30;;;;;;;6.35;4.50;;;5.70;99.90;;;;;;5117874;28;20036;-59
2020/12/07 02:08:55;;;;;;;9.48;5.75;;;5.70;99.90;;;;;;5117393;28;20489;-59
2020/12/07 02:11:21;;;;;;;6.60;5.30;;;5.70;99.90;;;;;;5099515;28;20085;-59
2020/12/07 02:13:48;;;;;;;7.70;5.13;;;5.70;99.90;;;;;;5098701;28;20028;-59
2020/12/07 02:16:13;;;;;;;8.10;5.40;;;5.70;99.90;;;;;;5099526;28;20031;-59
2020/12/07 02:18:39;;;;;;;8.52;5.80;;;5.70;99.90;;;;;;5117825;28;20027;-59
2020/12/07 02:21:05;;;;;;;7.88;5.30;;;5.70;99.90;;;;;;5098885;28;20020;-59
2020/12/07 02:23:30;;;;;;;5.97;4.68;;;5.70;99.90;;;;;;5099372;28;20027;-60
2020/12/07 02:25:56;;;;;;;6.97;5.53;;;5.60;99.90;;;;;;5117303;28;20034;-60
2020/12/07 02:28:22;;;;;;;5.05;4.00;;;5.70;99.90;;;;;;5117665;28;20098;-60
2020/12/07 02:30:48;;;;;;;7.50;4.93;;;5.60;99.90;;;;;;5117369;28;20107;-60
2020/12/07 02:33:14;;;;;;;7.40;5.00;;;5.60;99.90;;;;;;5099638;28;20024;-60
2020/12/07 02:35:39;;;;;;;8.90;5.47;;;5.50;99.90;;;;;;5099497;28;20495;-59
2020/12/07 02:38:05;;;;;;;8.23;5.57;;;5.50;99.90;;;;;;5098711;28;20027;-60
2020/12/07 02:40:30;;;;;;;7.45;5.22;;;5.50;99.90;;;;;;5099132;28;20034;-59
2020/12/07 02:42:56;;;;;;;7.63;5.53;;;5.60;99.90;;;;;;5098525;28;20057;-59
2020/12/07 02:45:22;;;;;;;8.02;5.72;;;5.60;99.90;;;;;;5117426;28;20034;-59
2020/12/07 02:47:47;;;;;;;6.07;4.07;;;5.60;99.90;;;;;;5116957;28;20047;-60
2020/12/07 02:50:13;;;;;;;7.90;5.20;;;5.70;99.90;;;;;;5099429;28;20373;-60
2020/12/07 02:52:40;;;;;;;8.35;5.28;;;5.70;99.90;;;;;;5099326;28;20122;-59
2020/12/07 02:55:08;;;;;;;7.53;5.30;;;5.60;99.90;;;;;;5117208;28;20043;-59
2020/12/07 02:57:34;;;;;;;9.02;5.80;;;5.70;99.90;;;;;;5099190;28;20384;-59
2020/12/07 03:00:00;;;;;;;5.93;4.30;;;5.70;99.90;;;;;;5094985;28;20517;-59
2020/12/07 03:02:25;;;;;;;6.82;4.70;;;5.60;99.90;;;;;;5114409;28;20027;-59
2020/12/07 03:04:51;;;;;;;6.60;5.07;;;5.60;99.90;;;;;;5095222;28;20055;-60
2020/12/07 03:07:17;;;;;;;8.40;5.38;;;5.60;99.90;;;;;;5095834;28;20028;-60
2020/12/07 03:09:43;;;;;;;6.70;5.05;;;5.60;99.90;;;;;;5095674;28;20027;-60
2020/12/07 03:12:09;;;;;;;6.75;4.95;;;5.60;99.90;;;;;;5113870;28;20036;-59
2020/12/07 03:14:35;;;;;;;9.02;5.75;;;5.60;99.90;;;;;;5095409;28;20457;-60
2020/12/07 03:17:01;;;;;;;6.40;5.03;;;5.70;99.90;;;;;;5113547;28;20079;-60
2020/12/07 03:19:26;;;;;;;6.95;5.32;;;5.60;99.90;;;;;;5095863;28;20404;-59
2020/12/07 03:21:52;;;;;;;7.78;5.38;;;5.50;99.90;;;;;;5113212;28;20051;-58
2020/12/07 03:24:18;;;;;;;8.50;6.00;;;5.40;99.90;;;;;;5095599;28;20414;-59
2020/12/07 03:26:44;;;;;;;9.10;5.88;;;5.40;99.90;;;;;;5113979;28;20031;-59
2020/12/07 03:29:10;;;;;;;10.63;6.63;;;5.50;99.90;;;;;;5094949;28;20023;-59
2020/12/07 03:31:38;;;;;;;9.18;5.85;;;5.60;99.90;;;;;;5095683;28;20026;-59
2020/12/07 03:34:05;;;;;;;10.80;6.90;;;5.60;99.90;;;;;;5095011;28;20020;-60
2020/12/07 03:36:31;;;;;;;9.48;7.47;;;5.50;99.90;;;;;;5095477;28;20027;-60
2020/12/07 03:38:57;;;;;;;10.07;6.45;;;5.50;99.90;;;;;;5113153;28;20034;-60
2020/12/07 03:41:22;;;;;;;9.65;6.70;;;5.60;99.90;;;;;;5113551;28;20031;-60
2020/12/07 03:43:49;;;;;;;11.10;7.35;;;5.70;99.90;;;;;;5113139;28;20416;-64
2020/12/07 03:46:14;;;;;;;13.52;7.57;;;5.70;99.90;;;;;;5094990;28;20028;-60
2020/12/07 03:48:41;;;;;;;12.68;7.30;;;5.60;99.90;;;;;;5113792;28;20054;-60
2020/12/07 03:51:07;;;;;;;12.48;6.68;;;5.60;99.90;;;;;;5094635;28;20439;-61
2020/12/07 03:53:34;;;;;;;12.68;8.25;;;5.60;99.90;;;;;;5113597;28;20028;-60
2020/12/07 03:56:00;;;;;;;12.40;7.63;;;5.60;99.90;;;;;;5112552;28;20114;-59
2020/12/07 03:58:26;;;;;;;12.43;8.38;;;5.60;99.90;;;;;;5113125;28;20133;-60
2020/12/07 04:00:53;;;;;;;12.27;8.00;;;5.60;99.90;;;;;;5094497;28;20023;-61
2020/12/07 04:03:20;;;;;;;13.65;8.70;;;5.60;99.90;;;;;;5113352;28;20023;-60
2020/12/07 04:05:48;;;;;;;11.25;7.70;;;5.50;99.90;;;;;;5113318;28;20086;-59
2020/12/07 04:08:13;;;;;;;13.45;8.10;;;5.50;99.90;;;;;;5112666;28;20434;-59
2020/12/07 04:10:40;;;;;;;14.48;7.93;;;5.60;99.90;;;;;;5113012;28;20031;-59
2020/12/07 04:13:06;;;;;;;11.07;7.90;;;5.60;99.90;;;;;;5112212;28;20072;-60
2020/12/07 04:15:33;;;;;;;12.35;8.23;;;5.60;99.90;;;;;;5112653;28;20050;-59
2020/12/07 04:17:59;;;;;;;12.85;8.60;;;5.50;99.90;;;;;;5112235;28;20069;-59
2020/12/07 04:20:24;;;;;;;13.65;8.73;;;5.40;99.90;;;;;;5112847;28;20478;-59
2020/12/07 04:22:51;;;;;;;16.45;9.25;;;5.50;99.90;;;;;;5094441;28;20069;-60
2020/12/07 04:25:17;;;;;;;14.02;8.88;;;5.60;99.90;;;;;;5094055;28;20063;-60
2020/12/07 04:27:43;;;;;;;19.80;11.23;;;5.50;99.90;;;;;;5112537;28;20128;-59
2020/12/07 04:30:09;;;;;;;14.30;9.00;;;5.40;99.90;;;;;;5111847;28;20028;-60
2020/12/07 04:32:34;;;;;;;14.10;9.85;;;5.50;99.90;;;;;;5112649;28;20027;-59
2020/12/07 04:35:00;;;;;;;16.08;9.70;;;5.50;99.90;;;;;;5093573;28;20032;-60
2020/12/07 04:37:26;;;;;;;15.43;10.18;;;5.40;99.90;;;;;;5094459;28;20110;-60
2020/12/07 04:39:53;;;;;;;16.27;9.93;;;5.30;99.90;;;;;;5093318;28;20030;-64
2020/12/07 04:42:19;;;;;;;18.30;10.95;;;5.30;99.90;;;;;;5094196;28;20465;-61
2020/12/07 04:44:46;;;;;;;17.27;11.15;;;5.20;99.90;;;;;;5112342;28;20019;-61
2020/12/07 04:47:16;;;;;;;15.45;9.85;;;5.30;99.90;;;;;;5111839;28;20264;-59
2020/12/07 04:49:43;;;;;;;18.52;11.02;;;5.30;99.90;;;;;;5111836;28;20079;-60
2020/12/07 04:52:09;;;;;;;16.55;10.35;;;5.30;99.90;;;;;;5111825;28;20085;-61
2020/12/07 04:54:37;;;;;;;20.52;11.98;;;5.30;99.90;;;;;;5093857;28;20377;-60
2020/12/07 04:57:04;;;;;;;19.38;11.55;;;5.30;99.90;;;;;;5093057;28;20473;-60
2020/12/07 04:59:32;;;;;;;18.70;11.52;;;5.30;99.90;;;;;;5093850;28;20028;-59
2020/12/07 05:01:59;;;;;;;22.33;11.68;;;5.40;99.90;;;;;;5111333;28;20048;-60
2020/12/07 05:04:24;;;;;;;19.75;11.50;;;5.50;99.90;;;;;;5112212;28;20027;-61
2020/12/07 05:07:00;;;;;;;17.15;11.10;;;5.50;99.90;;;;;;5093618;28;20393;-61
2020/12/07 05:09:27;;;;;;;19.00;11.82;;;5.20;99.90;;;;;;5093550;28;20471;-59
2020/12/07 05:11:55;;;;;;;16.95;11.13;;;5.20;99.90;;;;;;5112364;28;20031;-59
2020/12/07 05:14:21;;;;;;;19.88;12.30;;;5.20;99.90;;;;;;5111960;28;20083;-60
2020/12/07 05:16:48;;;;;;;16.25;10.10;;;5.20;99.90;;;;;;5111451;28;20032;-60
2020/12/07 05:19:18;;;;;;;19.15;11.98;;;5.30;99.90;;;;;;5092411;28;20072;-59
2020/12/07 05:21:44;;;;;;;17.95;11.45;;;5.40;99.90;;;;;;5092595;28;20034;-59
2020/12/07 05:24:10;;;;;;;18.48;10.73;;;5.40;99.90;;;;;;5091891;28;20024;-60
2020/12/07 05:26:36;;;;;;;145.88;30.50;;;5.40;99.90;;;;;;5111434;28;20102;-68
2020/12/07 05:29:07;;;;;;;28.45;14.50;;;6.30;99.90;;;;;;5092130;28;20024;-60
2020/12/07 05:31:34;;;;;;;18.33;10.85;;;6.40;99.90;;;;;;5093236;28;20380;-60
2020/12/07 05:34:00;;;;;;;19.52;11.30;;;5.90;99.90;;;;;;5092335;28;20024;-60
2020/12/07 05:36:27;;;;;;;19.38;11.27;;;5.70;99.90;;;;;;5092789;28;20024;-60
2020/12/07 05:38:52;;;;;;;21.95;12.48;;;5.50;99.90;;;;;;5092768;28;20055;-60
2020/12/07 05:41:22;;;;;;;18.65;12.00;;;5.40;99.90;;;;;;5091554;28;20063;-59
2020/12/07 05:43:52;;;;;;;22.33;11.63;;;5.40;99.90;;;;;;5111679;28;20035;-59
2020/12/07 05:46:18;;;;;;;20.45;11.82;;;5.40;99.90;;;;;;5110116;28;20463;-60
2020/12/07 05:48:44;;;;;;;19.23;11.50;;;5.40;99.90;;;;;;5110488;28;20130;-60
2020/12/07 05:51:13;;;;;;;19.70;11.57;;;5.40;99.90;;;;;;5111186;28;20023;-59
2020/12/07 05:53:40;;;;;;;22.60;13.27;;;5.30;99.90;;;;;;5092843;28;20036;-59
2020/12/07 05:56:08;;;;;;;21.52;13.20;;;5.40;99.90;;;;;;5110189;28;20031;-59
2020/12/07 05:58:52;;;;;;;20.55;11.93;;;5.30;99.90;;;;;;5111182;28;20052;-59
2020/12/07 06:01:23;;;;;;;19.73;12.10;;;5.30;99.90;;;;;;5110416;28;20019;-60
2020/12/07 06:03:54;;;;;;;17.60;11.52;;;5.30;99.90;;;;;;5093818;28;20110;-60
2020/12/07 06:06:31;;;;;;;22.60;11.90;;;5.20;99.90;;;;;;5093878;28;20051;-60
2020/12/07 06:09:05;;;;;;;18.88;11.93;;;5.20;99.90;;;;;;5092903;28;20533;-63
2020/12/07 06:11:38;;;;;;;20.45;12.15;;;5.20;99.90;;;;;;5111331;28;20496;-59
2020/12/07 06:14:04;;;;;;;17.55;11.80;;;5.20;99.90;;;;;;5110471;28;20026;-60
2020/12/07 06:16:36;;;;;;;19.63;11.75;;;5.20;99.90;;;;;;5092588;28;20031;-59
2020/12/07 06:19:13;;;;;;;18.38;11.77;;;5.20;99.90;;;;;;5110564;28;20031;-59
2020/12/07 06:21:47;;;;;;;22.42;12.02;;;5.30;99.90;;;;;;5111272;28;20032;-60
2020/12/07 06:24:13;;;;;;;18.33;11.25;;;5.20;99.90;;;;;;5110534;28;20031;-60
2020/12/07 06:26:39;;;;;;;20.27;11.93;;;5.30;99.90;;;;;;5110722;28;20039;-59
2020/12/07 06:29:05;;;;;;;23.05;11.57;;;5.10;99.90;;;;;;5091931;28;20074;-60
2020/12/07 06:31:35;;;;;;;18.73;12.98;;;5.20;99.90;;;;;;5111376;28;20024;-58
2020/12/07 06:34:10;;;;;;;20.70;12.73;;;5.20;99.90;;;;;;5094789;28;20078;-60
2020/12/07 06:36:39;;;;;;;23.65;14.43;;;5.20;99.90;;;;;;5115607;28;20019;-59
2020/12/07 06:39:07;;;;;;;20.48;12.55;;;5.20;99.90;;;;;;5115432;28;20051;-60
2020/12/07 06:41:38;;;;;;;24.10;13.63;;;5.10;99.90;;;;;;5100137;28;20123;-60
2020/12/07 06:44:13;;;;;;;25.03;14.63;;;5.10;99.90;;;;;;5098048;28;20028;-59
2020/12/07 06:47:04;;;;;;;25.00;13.85;;;5.10;99.90;;;;;;5096833;28;20449;-59
2020/12/07 06:49:38;;;;;;;29.33;14.80;;;5.10;99.90;;;;;;5098113;28;20073;-61
2020/12/07 06:52:10;;;;;;;23.58;14.90;;;4.90;99.90;;;;;;5095550;28;20119;-60
2020/12/07 06:57:43;;;;;;;26.65;15.10;;;5.10;99.90;;;;;;5114048;28;20030;-59
2020/12/07 07:00:18;;;;;;;28.20;15.82;;;5.10;99.90;;;;;;5097362;28;20027;-59
2020/12/07 07:02:46;;;;;;;26.77;15.43;;;5.10;99.90;;;;;;5096010;28;20020;-60
2020/12/07 07:05:13;;;;;;;28.77;15.85;;;5.10;99.90;;;;;;5094701;28;20407;-59
2020/12/07 07:07:40;;;;;;;25.40;14.68;;;5.10;99.90;;;;;;5094949;28;20114;-59
2020/12/07 07:10:07;;;;;;;25.92;15.05;;;5.10;99.90;;;;;;5094546;28;20024;-59
2020/12/07 07:12:34;;;;;;;26.95;15.77;;;5.10;99.90;;;;;;5095563;28;20055;-59
2020/12/07 07:15:00;;;;;;;24.48;14.43;;;5.20;99.90;;;;;;5095911;28;20023;-59
2020/12/07 07:17:28;;;;;;;23.67;13.70;;;5.10;99.90;;;;;;5113928;28;20080;-60
2020/12/07 07:19:54;;;;;;;22.90;14.52;;;5.20;99.90;;;;;;5095392;28;20080;-60
2020/12/07 07:22:20;;;;;;;22.50;13.80;;;5.30;99.90;;;;;;5112823;28;20024;-59
2020/12/07 07:25:26;;;;;;;22.13;13.57;;;5.40;99.90;;;;;;5094978;28;20358;-60
2020/12/07 07:27:58;;;;;;;24.42;14.23;;;5.40;99.90;;;;;;5110759;28;20157;-59
2020/12/07 07:30:24;;;;;;;25.75;14.48;;;5.50;99.90;;;;;;5113036;28;20028;-60
2020/12/07 07:32:52;;;;;;;22.90;13.90;;;5.50;99.90;;;;;;5095310;28;20028;-59
2020/12/07 07:35:20;;;;;;;23.13;14.52;;;5.50;99.90;;;;;;5094377;28;20031;-59
2020/12/07 07:37:47;;;;;;;27.58;15.20;;;5.50;99.90;;;;;;5094667;28;20024;-60
2020/12/07 07:40:21;;;;;;;23.73;14.65;;;5.50;99.90;;;;;;5112708;28;20065;-59
2020/12/07 07:42:50;;;;;;;29.15;15.77;;;5.60;99.90;;;;;;5094927;28;20126;-60
2020/12/07 07:45:23;;;;;;;25.10;14.75;;;5.60;99.90;;;;;;5112572;28;20097;-60
2020/12/07 08:03:28;;;;;;;28.30;16.52;;;5.30;99.90;;;;;;5113241;28;20027;-61
2020/12/07 08:15:49;;;;;;;27.85;16.08;;;5.30;99.90;;;;;;5112820;28;20122;-60
2020/12/07 08:18:19;;;;;;;24.13;15.63;;;5.30;99.90;;;;;;5093782;28;20461;-59
2020/12/07 08:20:56;;;;;;;26.67;16.17;;;5.40;99.90;;;;;;5093882;28;20071;-60
2020/12/07 08:23:29;;;;;;;29.83;18.83;;;5.50;99.90;;;;;;5093847;28;20020;-59
2020/12/07 08:25:56;;;;;;;27.20;15.93;;;5.50;99.90;;;;;;5094296;28;20514;-60
2020/12/07 08:28:31;;;;;;;27.13;16.40;;;5.60;99.90;;;;;;5093515;28;20035;-59
2020/12/07 08:31:11;;;;;;;30.80;15.88;;;5.60;99.90;;;;;;5082586;28;20020;-59
2020/12/07 08:33:54;;;;;;;23.38;15.25;;;5.60;99.90;;;;;;5081930;28;20035;-64
2020/12/07 08:36:20;;;;;;;29.52;15.45;;;5.60;99.90;;;;;;5083984;28;20093;-61
2020/12/07 08:38:46;;;;;;;25.58;15.30;;;5.60;99.90;;;;;;5085221;28;20036;-61
2020/12/07 08:41:29;;;;;;;25.98;16.17;;;5.50;99.90;;;;;;5085423;28;20023;-59
2020/12/07 08:44:00;;;;;;;21.65;13.57;;;5.60;99.90;;;;;;5086312;28;20040;-59
2020/12/07 08:46:28;;;;;;;24.30;12.90;;;5.50;99.90;;;;;;5086775;28;20164;-60
2020/12/07 08:48:55;;;;;;;21.48;13.13;;;5.60;99.90;;;;;;5078782;28;20052;-59
2020/12/07 08:51:26;;;;;;;19.70;11.25;;;5.70;99.90;;;;;;5107222;28;20019;-60
2020/12/07 08:53:52;;;;;;;23.42;11.75;;;5.60;99.90;;;;;;5077518;28;20102;-59
2020/12/07 08:56:18;;;;;;;20.55;11.80;;;5.60;99.90;;;;;;5106134;28;20058;-60
2020/12/07 08:58:44;;;;;;;20.42;11.80;;;5.60;99.90;;;;;;5092971;28;20027;-60
2020/12/07 09:01:11;;;;;;;25.67;13.70;;;5.60;99.90;;;;;;5092203;28;20024;-61
2020/12/07 09:03:38;;;;;;;22.05;11.55;;;5.60;99.90;;;;;;5093353;28;20023;-60
2020/12/07 09:06:05;;;;;;;18.92;12.00;;;5.70;99.90;;;;;;5093114;28;20388;-59
2020/12/07 09:08:34;;;;;;;21.95;13.15;;;5.70;99.90;;;;;;5092777;28;20026;-60
2020/12/07 09:11:04;;;;;;;20.02;12.20;;;5.70;99.90;;;;;;5093437;28;20026;-59
2020/12/07 09:13:30;;;;;;;18.08;11.00;;;5.80;99.90;;;;;;5092843;28;20484;-59
2020/12/07 09:15:56;;;;;;;23.95;13.55;;;5.80;99.90;;;;;;5111788;28;20023;-61
2020/12/07 09:18:21;;;;;;;21.00;11.77;;;5.90;99.90;;;;;;5092968;28;20372;-59
2020/12/07 09:20:48;;;;;;;21.27;12.57;;;5.90;99.90;;;;;;5093337;28;20114;-60
2020/12/07 09:23:13;;;;;;;19.33;12.88;;;5.80;99.90;;;;;;5092609;28;20050;-59
2020/12/07 09:25:39;;;;;;;23.33;12.32;;;5.80;99.90;;;;;;5093153;28;20073;-59
2020/12/07 09:28:05;;;;;;;17.40;10.68;;;5.90;99.90;;;;;;5093163;28;20134;-59
2020/12/07 09:30:32;;;;;;;24.23;12.90;;;5.90;99.90;;;;;;5092516;28;20024;-60
2020/12/07 09:32:57;;;;;;;21.30;12.95;;;5.80;99.90;;;;;;5093043;28;20430;-60
2020/12/07 09:35:23;;;;;;;21.65;12.23;;;5.70;99.90;;;;;;5092599;28;20027;-59
2020/12/07 09:37:49;;;;;;;19.75;12.43;;;5.70;99.90;;;;;;5093220;28;20055;-61
2020/12/07 09:40:14;;;;;;;20.55;13.38;;;5.70;99.90;;;;;;5091998;28;20458;-60
2020/12/07 09:42:41;;;;;;;21.48;12.82;;;5.70;99.90;;;;;;5111109;28;20111;-60
2020/12/07 09:45:09;;;;;;;23.98;14.02;;;5.60;99.90;;;;;;5092799;28;20016;-60
2020/12/07 09:47:35;;;;;;;21.65;13.02;;;5.60;99.90;;;;;;5092962;28;20020;-60
2020/12/07 09:50:03;;;;;;;28.23;13.40;;;5.60;99.90;;;;;;5092609;28;20048;-59
2020/12/07 09:52:29;;;;;;;27.08;13.00;;;5.60;99.90;;;;;;5110721;28;20189;-60
2020/12/07 09:54:54;;;;;;;22.30;12.15;;;5.50;99.90;;;;;;5092730;28;20024;-60
2020/12/07 09:57:20;;;;;;;24.67;13.10;;;5.60;99.90;;;;;;5091936;28;20027;-58
2020/12/07 09:59:48;;;;;;;19.60;12.95;;;5.50;99.90;;;;;;5092821;28;20152;-60
2020/12/07 10:02:15;;;;;;;21.25;12.98;;;5.60;99.90;;;;;;5092146;28;20473;-61
2020/12/07 10:04:41;;;;;;;21.63;13.20;;;5.60;99.90;;;;;;5093333;28;20353;-60
2020/12/07 10:07:07;;;;;;;19.75;12.30;;;5.70;99.90;;;;;;5092749;28;20032;-59
2020/12/07 10:09:33;;;;;;;21.15;11.75;;;5.60;99.90;;;;;;5113452;28;20034;-59
2020/12/07 10:11:58;;;;;;;16.95;11.48;;;5.60;99.90;;;;;;5096901;28;20032;-60
2020/12/07 10:14:24;;;;;;;18.60;11.75;;;5.50;99.90;;;;;;5096325;28;20065;-59
2020/12/07 10:16:50;;;;;;;19.95;12.73;;;5.60;99.90;;;;;;5096928;28;20155;-60
2020/12/07 10:19:16;;;;;;;20.40;13.13;;;5.60;99.90;;;;;;5096562;28;20537;-59
2020/12/07 10:21:41;;;;;;;19.02;12.13;;;5.70;99.90;;;;;;5096958;28;20102;-60
2020/12/07 10:24:07;;;;;;;19.42;11.40;;;5.50;99.90;;;;;;5096312;28;20016;-60
2020/12/07 10:26:33;;;;;;;23.02;12.80;;;5.70;99.90;;;;;;5114280;28;20179;-60
2020/12/07 10:29:00;;;;;;;18.65;11.95;;;5.50;99.90;;;;;;5096457;28;20028;-60
2020/12/07 10:31:26;;;;;;;18.50;11.32;;;5.50;99.90;;;;;;5095587;28;20153;-59
2020/12/07 10:33:52;;;;;;;19.50;12.48;;;5.60;99.90;;;;;;5115001;28;20055;-60
2020/12/07 10:36:19;;;;;;;20.25;12.52;;;5.60;99.90;;;;;;5095384;28;20023;-61
2020/12/07 10:38:47;;;;;;;21.55;11.88;;;5.60;99.90;;;;;;5096303;28;20114;-60
2020/12/07 10:41:13;;;;;;;20.75;12.93;;;5.70;99.90;;;;;;5095251;28;20031;-67
2020/12/07 10:43:40;;;;;;;19.15;12.10;;;5.70;99.90;;;;;;5096117;28;20035;-60
2020/12/07 10:46:07;;;;;;;18.08;12.25;;;5.70;99.90;;;;;;5096089;28;20130;-59
2020/12/07 10:48:33;;;;;;;21.27;12.13;;;5.80;99.90;;;;;;5091679;28;20273;-60
2020/12/07 10:50:59;;;;;;;18.85;11.93;;;5.90;99.90;;;;;;5092343;28;20021;-60
2020/12/07 10:53:24;;;;;;;21.05;12.80;;;5.90;99.90;;;;;;5091976;28;20085;-61
2020/12/07 10:55:52;;;;;;;19.25;11.57;;;5.80;99.90;;;;;;5092583;28;20055;-59
2020/12/07 10:58:18;;;;;;;19.30;11.27;;;5.80;99.90;;;;;;5091458;28;20072;-60
2020/12/07 11:00:44;;;;;;;16.95;11.82;;;5.60;99.90;;;;;;5093671;28;20097;-60
2020/12/07 11:03:10;;;;;;;17.40;11.55;;;5.70;99.90;;;;;;5092506;28;20425;-60
2020/12/07 11:05:38;;;;;;;17.33;10.57;;;5.70;99.90;;;;;;5091479;28;20036;-61
2020/12/07 11:08:11;;;;;;;21.75;12.00;;;5.70;99.90;;;;;;5092049;28;20457;-61
2020/12/07 11:10:37;;;;;;;18.50;10.27;;;5.70;99.90;;;;;;5091275;28;20051;-60
2020/12/07 11:13:10;;;;;;;17.60;11.68;;;5.70;99.90;;;;;;5092059;28;20056;-60
2020/12/07 11:15:36;;;;;;;14.65;10.35;;;5.70;99.90;;;;;;5092468;28;20114;-60
2020/12/07 11:18:02;;;;;;;20.90;11.90;;;5.70;99.90;;;;;;5092059;28;20059;-60
2020/12/07 11:20:27;;;;;;;17.05;10.98;;;5.60;99.90;;;;;;5090364;28;20311;-60
2020/12/07 11:22:53;;;;;;;17.08;10.35;;;5.70;99.90;;;;;;5091947;28;20030;-59
2020/12/07 11:25:19;;;;;;;20.63;10.55;;;5.80;99.90;;;;;;5091266;28;20028;-60
2020/12/07 11:27:44;;;;;;;16.83;10.70;;;5.80;99.90;;;;;;5093824;28;20055;-60
2020/12/07 11:30:10;;;;;;;16.73;10.32;;;6.00;99.90;;;;;;5092022;28;20476;-60
2020/12/07 11:32:36;;;;;;;16.85;10.80;;;6.00;99.90;;;;;;5090936;28;20119;-60
2020/12/07 11:35:01;;;;;;;15.45;10.15;;;6.00;99.90;;;;;;5092912;28;20415;-59
2020/12/07 11:37:27;;;;;;;15.68;10.50;;;5.90;99.90;;;;;;5090718;28;20339;-59
2020/12/07 11:40:08;;;;;;;17.33;11.02;;;5.90;99.90;;;;;;5091060;28;20035;-59
2020/12/07 11:42:42;;;;;;;18.77;10.43;;;6.00;99.90;;;;;;5091040;28;20070;-59
2020/12/07 11:45:08;;;;;;;21.27;11.93;;;6.00;99.90;;;;;;5092875;28;20054;-60
2020/12/07 11:47:34;;;;;;;16.38;10.93;;;6.10;99.90;;;;;;5091090;28;20476;-60
2020/12/07 11:49:59;;;;;;;17.65;9.98;;;6.10;99.90;;;;;;5113065;28;20055;-60
2020/12/07 11:52:25;;;;;;;14.65;9.30;;;6.10;99.90;;;;;;5094128;28;20019;-60
2020/12/07 11:54:51;;;;;;;14.38;10.18;;;6.10;99.90;;;;;;5094981;28;20456;-60
2020/12/07 11:57:16;;;;;;;17.30;11.00;;;6.10;99.90;;;;;;5113129;28;20031;-66
2020/12/07 11:59:42;;;;;;;17.13;11.15;;;6.20;99.90;;;;;;5094281;28;20436;-60
2020/12/07 12:02:08;;;;;;;21.52;11.77;;;6.10;99.90;;;;;;5094785;28;20076;-60
2020/12/07 12:04:33;;;;;;;17.33;11.18;;;6.20;99.90;;;;;;5094183;28;20031;-62
2020/12/07 12:06:59;;;;;;;16.85;10.95;;;6.00;99.90;;;;;;5094309;28;20126;-65
2020/12/07 12:09:25;;;;;;;18.58;11.05;;;5.90;99.90;;;;;;5112078;28;20490;-61
2020/12/07 12:11:50;;;;;;;19.42;11.73;;;5.70;99.90;;;;;;5094274;28;20034;-60
2020/12/07 12:14:17;;;;;;;17.73;11.38;;;5.80;99.90;;;;;;5094404;28;20030;-61
2020/12/07 12:16:43;;;;;;;18.35;10.93;;;5.90;99.90;;;;;;5111948;28;20550;-60
2020/12/07 12:19:10;;;;;;;19.48;12.80;;;5.90;99.90;;;;;;5094145;28;20052;-61
2020/12/07 12:21:37;;;;;;;21.45;12.40;;;6.10;99.90;;;;;;5112267;28;20046;-59
2020/12/07 12:24:05;;;;;;;21.30;11.93;;;6.10;99.90;;;;;;5094121;28;20035;-60
2020/12/07 12:26:36;;;;;;;22.45;13.52;;;6.10;99.90;;;;;;5111716;28;20093;-60
2020/12/07 12:29:04;;;;;;;16.80;11.85;;;6.20;99.90;;;;;;5112709;28;20059;-59
2020/12/07 12:31:30;;;;;;;17.98;11.20;;;6.10;99.90;;;;;;5111861;28;20133;-61
2020/12/07 12:33:56;;;;;;;18.08;11.77;;;6.20;99.90;;;;;;5112288;28;20092;-60
2020/12/07 12:36:26;;;;;;;16.85;10.52;;;6.20;99.90;;;;;;5092866;28;20046;-62
2020/12/07 12:38:53;;;;;;;19.88;11.32;;;6.20;99.90;;;;;;5111992;28;20028;-61
2020/12/07 12:41:20;;;;;;;18.70;11.23;;;6.30;99.90;;;;;;5093580;28;20043;-66
2020/12/07 12:43:46;;;;;;;18.38;10.55;;;6.40;99.90;;;;;;5093944;28;20047;-59
2020/12/07 12:46:12;;;;;;;14.98;10.48;;;6.40;99.90;;;;;;5093690;28;20460;-59
2020/12/07 12:48:38;;;;;;;15.25;9.98;;;6.90;99.90;;;;;;5088826;28;20556;-60
2020/12/07 12:51:05;;;;;;;17.02;9.93;;;7.40;99.90;;;;;;5089824;28;20115;-61
2020/12/07 12:53:30;;;;;;;13.73;9.18;;;8.20;99.90;;;;;;5089971;28;20024;-61
2020/12/07 12:55:57;;;;;;;11.85;8.15;;;8.50;99.90;;;;;;5089994;28;20031;-61
2020/12/07 12:58:23;;;;;;;14.85;9.10;;;8.20;99.90;;;;;;5089109;28;20024;-59
2020/12/07 13:00:49;;;;;;;14.23;9.07;;;8.00;99.90;;;;;;5090101;28;20039;-60
2020/12/07 13:03:16;;;;;;;15.93;9.07;;;7.70;99.90;;;;;;5091175;28;20020;-59
2020/12/07 13:05:41;;;;;;;14.75;8.85;;;7.70;99.90;;;;;;5090672;28;20114;-58
2020/12/07 13:08:07;;;;;;;12.52;9.13;;;7.60;99.90;;;;;;5089940;28;20115;-59
2020/12/07 13:10:33;;;;;;;15.82;8.88;;;7.50;99.90;;;;;;5089064;28;20043;-58
2020/12/07 13:12:59;;;;;;;12.77;9.77;;;7.50;99.90;;;;;;5090045;28;20097;-60